Time;durP1;ratioP1;P1;durP2;ratioP2;P2;SDS_P1;SDS_P2;PMS_P1;PMS_P2;Temp;Humidity;BMP_temperature;BMP_pressure;BME280_temperature;BME280_humidity;BME280_pressure;Samples;Min_cycle;Max_cycle;Signal;HPM_P1;HPM_P2
2023/04/17 00:01:22;;;;;;;2.23;2.03;;;6.40;99.90;;;;;;5038589;28;20454;-80
2023/04/17 00:03:51;;;;;;;3.90;2.17;;;6.40;99.90;;;;;;5045886;28;20461;-80
2023/04/17 00:06:19;;;;;;;2.57;1.83;;;6.40;99.90;;;;;;5040958;28;20496;-79
2023/04/17 00:08:47;;;;;;;2.47;1.70;;;6.40;99.90;;;;;;5044845;28;20453;-80
2023/04/17 00:11:14;;;;;;;2.10;2.00;;;6.40;99.90;;;;;;5034308;28;20640;-80
2023/04/17 00:13:42;;;;;;;2.00;1.90;;;6.40;99.90;;;;;;5035082;28;20475;-79
2023/04/17 00:16:11;;;;;;;1.63;1.53;;;6.40;99.90;;;;;;5037481;28;20461;-79
2023/04/17 00:18:38;;;;;;;1.87;1.77;;;6.40;99.90;;;;;;5044443;28;20453;-79
2023/04/17 00:21:05;;;;;;;2.03;1.90;;;6.40;99.90;;;;;;5033758;28;20458;-80
2023/04/17 00:23:34;;;;;;;2.33;2.13;;;6.40;99.90;;;;;;5034326;28;21018;-80
2023/04/17 00:26:01;;;;;;;2.47;2.30;;;6.40;99.90;;;;;;5039442;28;20557;-80
2023/04/17 00:28:27;;;;;;;1.97;1.87;;;6.40;99.90;;;;;;5044468;28;20776;-80
2023/04/17 00:30:57;;;;;;;2.47;2.27;;;6.40;99.90;;;;;;5040414;28;20821;-80
2023/04/17 00:33:24;;;;;;;2.73;2.53;;;6.40;99.90;;;;;;5044970;28;20788;-80
2023/04/17 00:35:51;;;;;;;2.40;1.83;;;6.40;99.90;;;;;;5040307;28;20497;-80
2023/04/17 00:38:18;;;;;;;2.67;2.47;;;6.40;99.90;;;;;;5035953;28;20831;-80
2023/04/17 00:40:47;;;;;;;1.60;1.50;;;6.40;99.90;;;;;;5037347;28;20665;-80
2023/04/17 00:43:14;;;;;;;1.97;1.87;;;6.50;99.90;;;;;;5034285;28;20572;-79
2023/04/17 00:45:42;;;;;;;2.57;2.37;;;6.50;99.90;;;;;;5043588;28;20507;-79
2023/04/17 00:48:12;;;;;;;3.03;1.60;;;6.50;99.90;;;;;;5034586;28;20453;-79
2023/04/17 00:50:39;;;;;;;2.93;1.83;;;6.50;99.90;;;;;;5043816;28;20488;-79
2023/04/17 00:53:06;;;;;;;1.77;1.67;;;6.50;99.90;;;;;;5040947;28;20457;-79
2023/04/17 00:55:35;;;;;;;2.30;2.10;;;6.50;99.90;;;;;;5040680;28;20449;-79
2023/04/17 00:58:04;;;;;;;2.67;2.40;;;6.50;99.90;;;;;;5038023;28;20546;-80
2023/04/17 01:00:31;;;;;;;2.83;2.60;;;6.50;99.90;;;;;;5025643;28;20466;-79
2023/04/17 01:02:58;;;;;;;3.70;3.40;;;6.50;99.90;;;;;;5039663;28;20457;-79
2023/04/17 01:05:26;;;;;;;2.17;2.07;;;6.40;99.90;;;;;;5037838;28;20976;-79
2023/04/17 01:07:54;;;;;;;2.37;2.27;;;6.40;99.90;;;;;;5041539;28;20519;-79
2023/04/17 01:10:22;;;;;;;2.87;2.67;;;6.50;99.90;;;;;;5041143;28;20967;-79
2023/04/17 01:13:03;;;;;;;3.73;3.00;;;6.50;99.90;;;;;;5037402;28;20860;-79
2023/04/17 01:15:30;;;;;;;3.70;3.40;;;6.50;99.90;;;;;;5043980;28;20786;-79
2023/04/17 01:17:57;;;;;;;3.53;3.23;;;6.40;99.90;;;;;;5035095;28;20470;-79
2023/04/17 01:20:29;;;;;;;2.83;2.63;;;6.30;99.90;;;;;;5044787;28;20445;-79
2023/04/17 01:22:57;;;;;;;3.57;3.23;;;6.30;99.90;;;;;;5040336;28;20472;-80
2023/04/17 01:25:25;;;;;;;2.63;2.43;;;6.30;99.90;;;;;;5043375;28;20489;-80
2023/04/17 01:27:52;;;;;;;2.70;2.50;;;6.30;99.90;;;;;;5042026;28;20551;-79
2023/04/17 01:30:20;;;;;;;2.40;2.20;;;6.30;99.90;;;;;;5038994;28;20457;-79
2023/04/17 01:32:47;;;;;;;3.17;2.87;;;6.40;99.90;;;;;;5042857;28;20494;-79
2023/04/17 01:35:14;;;;;;;2.97;2.77;;;6.30;99.90;;;;;;5032577;28;20497;-79
2023/04/17 01:37:41;;;;;;;5.20;2.80;;;6.20;99.90;;;;;;5041633;28;20467;-79
2023/04/17 01:40:09;;;;;;;2.20;2.07;;;6.20;99.90;;;;;;5041071;28;20457;-79
2023/04/17 01:42:38;;;;;;;4.10;3.80;;;6.20;99.90;;;;;;5036912;28;20481;-79
2023/04/17 01:45:06;;;;;;;2.30;2.17;;;6.20;99.90;;;;;;5035523;28;20510;-79
2023/04/17 01:47:33;;;;;;;3.50;3.20;;;6.20;99.90;;;;;;5042516;28;20508;-79
2023/04/17 01:50:00;;;;;;;3.33;3.10;;;6.20;99.90;;;;;;5039896;28;20456;-79
2023/04/17 01:52:27;;;;;;;2.90;2.70;;;6.20;99.90;;;;;;5040160;28;20735;-79
2023/04/17 01:54:53;;;;;;;3.03;2.70;;;6.20;99.90;;;;;;5042438;28;20788;-79
2023/04/17 01:57:21;;;;;;;3.50;3.20;;;6.10;99.90;;;;;;5037788;28;20481;-79
2023/04/17 01:59:49;;;;;;;3.20;2.77;;;6.20;99.90;;;;;;5034530;28;20564;-79
2023/04/17 02:02:16;;;;;;;2.70;2.43;;;6.20;99.90;;;;;;5041859;28;20472;-79
2023/04/17 02:04:43;;;;;;;3.53;2.63;;;6.20;99.90;;;;;;5033952;28;20868;-79
2023/04/17 02:07:10;;;;;;;3.47;2.57;;;6.20;99.90;;;;;;5041548;28;20688;-79
2023/04/17 02:09:37;;;;;;;3.57;3.27;;;6.20;99.90;;;;;;5032094;28;20469;-79
2023/04/17 02:12:04;;;;;;;6.37;4.30;;;6.20;99.90;;;;;;5039439;28;20492;-79
2023/04/17 02:14:31;;;;;;;3.90;3.47;;;6.20;99.90;;;;;;5042434;28;20540;-79
2023/04/17 02:17:00;;;;;;;2.50;2.23;;;6.20;99.90;;;;;;5035673;28;21058;-79
2023/04/17 02:19:27;;;;;;;3.10;2.40;;;6.20;99.90;;;;;;5047265;28;20893;-79
2023/04/17 02:21:54;;;;;;;2.97;2.70;;;6.20;99.90;;;;;;5035580;28;21055;-79
2023/04/17 02:24:21;;;;;;;3.20;1.90;;;6.20;99.90;;;;;;5042029;28;21039;-79
2023/04/17 02:26:48;;;;;;;2.73;2.53;;;6.20;99.90;;;;;;5040889;28;20484;-78
2023/04/17 02:29:15;;;;;;;3.20;2.90;;;6.20;99.90;;;;;;5045680;28;20547;-79
2023/04/17 02:31:42;;;;;;;2.40;2.20;;;6.20;99.90;;;;;;5043773;28;20445;-79
2023/04/17 02:34:10;;;;;;;3.00;2.70;;;6.20;99.90;;;;;;5042970;28;20475;-80
2023/04/17 02:36:37;;;;;;;2.07;1.90;;;6.20;99.90;;;;;;5043353;28;20457;-79
2023/04/17 02:39:04;;;;;;;2.70;2.23;;;6.30;99.90;;;;;;5036069;28;20465;-79
2023/04/17 02:41:31;;;;;;;2.57;2.37;;;6.20;99.90;;;;;;5042603;28;20453;-79
2023/04/17 02:44:00;;;;;;;3.27;2.97;;;6.20;99.90;;;;;;5038572;28;20473;-79
2023/04/17 02:46:27;;;;;;;2.10;1.90;;;6.20;99.90;;;;;;5043959;28;20489;-80
2023/04/17 02:48:54;;;;;;;3.13;2.93;;;6.20;99.90;;;;;;5045905;28;20841;-79
2023/04/17 02:51:22;;;;;;;2.67;2.43;;;6.20;99.90;;;;;;5040308;28;20464;-79
2023/04/17 02:53:49;;;;;;;3.10;2.90;;;6.30;99.90;;;;;;5038165;28;20456;-79
2023/04/17 02:56:16;;;;;;;3.73;2.77;;;6.30;99.90;;;;;;5042701;28;20441;-79
2023/04/17 02:58:44;;;;;;;3.57;3.20;;;6.30;99.90;;;;;;5034545;28;20792;-77
2023/04/17 03:01:11;;;;;;;2.30;1.90;;;6.30;99.90;;;;;;5042305;28;20450;-77
2023/04/17 03:03:41;;;;;;;2.63;2.43;;;6.30;99.90;;;;;;5038153;28;20464;-77
2023/04/17 03:06:08;;;;;;;3.33;2.77;;;6.30;99.90;;;;;;5040923;28;20499;-77
2023/04/17 03:08:37;;;;;;;3.23;2.93;;;6.30;99.90;;;;;;5042609;28;20540;-77
2023/04/17 03:11:05;;;;;;;2.53;2.43;;;6.20;99.90;;;;;;5044611;28;20893;-77
2023/04/17 03:13:35;;;;;;;3.67;3.37;;;6.20;99.90;;;;;;5042032;28;20516;-78
2023/04/17 03:16:03;;;;;;;2.30;2.10;;;6.20;99.90;;;;;;5043644;28;20443;-78
2023/04/17 03:18:30;;;;;;;4.03;2.90;;;6.20;99.90;;;;;;5041472;28;20511;-77
2023/04/17 03:20:58;;;;;;;2.47;2.20;;;6.20;99.90;;;;;;5046218;28;20522;-77
2023/04/17 03:23:25;;;;;;;2.70;2.50;;;6.30;99.90;;;;;;5043656;28;20496;-77
2023/04/17 03:25:53;;;;;;;2.87;2.67;;;6.20;99.90;;;;;;5044428;28;20508;-78
2023/04/17 03:28:22;;;;;;;4.57;4.17;;;6.30;99.90;;;;;;5038470;28;20470;-77
2023/04/17 03:30:49;;;;;;;3.27;2.97;;;6.30;99.90;;;;;;5041166;28;20475;-77
2023/04/17 03:33:17;;;;;;;4.27;3.97;;;6.30;99.90;;;;;;5041621;28;20553;-77
2023/04/17 03:35:45;;;;;;;3.47;3.17;;;6.30;99.90;;;;;;5039860;28;20493;-77
2023/04/17 03:38:12;;;;;;;4.13;3.80;;;6.30;99.90;;;;;;5029705;28;20468;-77
2023/04/17 03:40:38;;;;;;;4.67;3.97;;;6.30;99.90;;;;;;5036152;28;20450;-77
2023/04/17 03:43:07;;;;;;;4.17;3.77;;;6.40;99.90;;;;;;5036447;28;20559;-77
2023/04/17 03:45:34;;;;;;;3.67;3.33;;;6.30;99.90;;;;;;5043670;28;20483;-77
2023/04/17 03:48:01;;;;;;;3.90;3.50;;;6.30;99.90;;;;;;5045688;28;20489;-77
2023/04/17 03:50:28;;;;;;;4.57;4.00;;;6.30;99.90;;;;;;5035083;28;20532;-77
2023/04/17 03:52:55;;;;;;;4.43;3.40;;;6.40;99.90;;;;;;5043506;28;20506;-77
2023/04/17 03:55:22;;;;;;;3.30;3.10;;;6.30;99.90;;;;;;5043440;28;20754;-77
2023/04/17 03:57:50;;;;;;;4.17;3.80;;;6.30;99.90;;;;;;5043374;28;20468;-77
2023/04/17 04:00:20;;;;;;;3.23;3.00;;;6.30;99.90;;;;;;5037885;28;20526;-77
2023/04/17 04:02:48;;;;;;;4.10;3.50;;;6.30;99.90;;;;;;5042761;28;20929;-77
2023/04/17 04:05:15;;;;;;;4.93;3.90;;;6.30;99.90;;;;;;5042280;28;20810;-77
2023/04/17 04:07:42;;;;;;;4.17;3.87;;;6.30;99.90;;;;;;5044373;28;20487;-77
2023/04/17 04:10:10;;;;;;;3.67;3.37;;;6.30;99.90;;;;;;5042709;28;20782;-77
2023/04/17 04:12:37;;;;;;;3.80;3.40;;;6.40;99.90;;;;;;5043285;28;20851;-78
2023/04/17 04:15:05;;;;;;;3.60;3.27;;;6.30;99.90;;;;;;5045726;28;20449;-77
2023/04/17 04:17:33;;;;;;;4.17;3.77;;;6.30;99.90;;;;;;5044517;28;20445;-77
2023/04/17 04:20:00;;;;;;;3.90;3.30;;;6.40;99.90;;;;;;5042261;28;20518;-77
2023/04/17 04:22:28;;;;;;;4.07;3.77;;;6.40;99.90;;;;;;5042469;28;20518;-77
2023/04/17 04:24:55;;;;;;;3.97;3.57;;;6.40;99.90;;;;;;5045475;28;20921;-77
2023/04/17 04:27:22;;;;;;;4.60;3.80;;;6.40;99.90;;;;;;5030328;28;20583;-78
2023/04/17 04:29:49;;;;;;;3.47;3.17;;;6.40;99.90;;;;;;5045755;28;20467;-78
2023/04/17 04:32:16;;;;;;;4.67;4.20;;;6.40;99.90;;;;;;5042312;28;20452;-78
2023/04/17 04:34:45;;;;;;;6.17;4.30;;;6.40;99.90;;;;;;5034760;28;20542;-77
2023/04/17 04:37:14;;;;;;;4.87;4.47;;;6.40;99.90;;;;;;5032511;28;20532;-78
2023/04/17 04:39:41;;;;;;;4.43;4.03;;;6.40;99.90;;;;;;5043562;28;20920;-77
2023/04/17 04:42:08;;;;;;;5.83;5.33;;;6.50;99.90;;;;;;5034937;28;21133;-77
2023/04/17 04:44:36;;;;;;;4.90;4.50;;;6.50;99.90;;;;;;5043004;28;20449;-77
2023/04/17 04:47:03;;;;;;;6.30;4.93;;;6.50;99.90;;;;;;5044133;28;20510;-77
2023/04/17 04:49:30;;;;;;;3.93;3.60;;;6.50;99.90;;;;;;5040242;28;20547;-78
2023/04/17 04:51:58;;;;;;;4.40;4.00;;;6.50;99.90;;;;;;5038169;28;20477;-78
2023/04/17 04:54:25;;;;;;;3.13;2.93;;;6.50;99.90;;;;;;5041889;28;20453;-77
2023/04/17 04:56:52;;;;;;;4.23;3.83;;;6.60;99.90;;;;;;5042292;28;20534;-77
2023/04/17 04:59:19;;;;;;;5.27;3.93;;;6.60;99.90;;;;;;5039797;28;21022;-77
2023/04/17 05:01:47;;;;;;;5.70;5.07;;;6.60;99.90;;;;;;5042819;28;20472;-77
2023/04/17 05:04:13;;;;;;;4.50;3.60;;;6.60;99.90;;;;;;5038597;28;20446;-77
2023/04/17 05:06:40;;;;;;;6.43;4.53;;;6.60;99.90;;;;;;5042348;28;20871;-77
2023/04/17 05:09:09;;;;;;;5.60;4.70;;;6.60;99.90;;;;;;5036931;28;20473;-77
2023/04/17 05:11:36;;;;;;;4.70;4.30;;;6.70;99.90;;;;;;5043282;28;20438;-77
2023/04/17 05:14:03;;;;;;;5.80;5.20;;;6.70;99.90;;;;;;5037727;28;20653;-77
2023/04/17 05:16:30;;;;;;;3.27;2.97;;;6.70;99.90;;;;;;5030926;28;20555;-78
2023/04/17 05:18:57;;;;;;;5.30;4.80;;;6.70;99.90;;;;;;5042260;28;20823;-77
2023/04/17 05:21:26;;;;;;;4.50;4.10;;;6.70;99.90;;;;;;5039952;28;20507;-77
2023/04/17 05:23:53;;;;;;;4.30;4.00;;;6.70;99.90;;;;;;5040399;28;20545;-78
2023/04/17 05:26:21;;;;;;;3.83;3.43;;;6.70;99.90;;;;;;5029848;28;20442;-77
2023/04/17 05:28:48;;;;;;;4.20;3.57;;;6.80;99.90;;;;;;5040542;28;20551;-77
2023/04/17 05:31:15;;;;;;;3.50;3.20;;;6.80;99.90;;;;;;5041007;28;20519;-77
2023/04/17 05:33:42;;;;;;;3.20;3.00;;;6.80;99.90;;;;;;5037650;28;20974;-77
2023/04/17 05:36:10;;;;;;;3.70;3.40;;;6.70;99.90;;;;;;5040227;28;20932;-78
2023/04/17 05:38:37;;;;;;;4.60;4.20;;;6.70;99.90;;;;;;5040467;28;20797;-77
2023/04/17 05:41:06;;;;;;;4.87;3.47;;;6.70;99.90;;;;;;5042588;28;20453;-78
2023/04/17 05:43:34;;;;;;;3.93;3.63;;;6.80;99.90;;;;;;5041101;28;20959;-77
2023/04/17 05:46:01;;;;;;;5.70;4.20;;;6.80;99.90;;;;;;5041359;28;20449;-78
2023/04/17 05:48:28;;;;;;;3.63;3.33;;;6.80;99.90;;;;;;5041450;28;21025;-77
2023/04/17 05:50:55;;;;;;;4.67;4.27;;;6.80;99.90;;;;;;5038035;28;20987;-79
2023/04/17 05:53:22;;;;;;;4.10;3.70;;;6.80;99.90;;;;;;5043653;28;20838;-79
2023/04/17 05:55:49;;;;;;;5.03;4.53;;;6.90;99.90;;;;;;5047023;28;20815;-79
2023/04/17 05:58:16;;;;;;;4.70;4.30;;;6.90;99.90;;;;;;5039953;28;20485;-78
2023/04/17 06:00:45;;;;;;;4.37;3.80;;;6.90;99.90;;;;;;5044804;28;20491;-78
2023/04/17 06:03:12;;;;;;;5.80;4.33;;;6.90;99.90;;;;;;5037189;28;20457;-78
2023/04/17 06:05:39;;;;;;;4.97;4.57;;;6.90;99.90;;;;;;5045500;28;20891;-78
2023/04/17 06:08:06;;;;;;;4.60;4.20;;;6.90;99.90;;;;;;5045669;28;20489;-78
2023/04/17 06:10:33;;;;;;;4.57;4.17;;;6.90;99.90;;;;;;5044327;28;20958;-78
2023/04/17 06:13:01;;;;;;;5.27;4.80;;;6.90;99.90;;;;;;5046635;28;20469;-78
2023/04/17 06:15:27;;;;;;;5.00;4.33;;;6.90;99.90;;;;;;5037598;28;20469;-78
2023/04/17 06:17:56;;;;;;;5.80;5.30;;;6.90;99.90;;;;;;5045320;28;20445;-78
2023/04/17 06:20:23;;;;;;;5.93;5.17;;;7.00;99.90;;;;;;5041372;28;20580;-78
2023/04/17 06:22:50;;;;;;;6.47;4.77;;;7.00;99.90;;;;;;5042768;28;20542;-78
2023/04/17 06:25:17;;;;;;;5.53;4.97;;;7.00;99.90;;;;;;5040411;28;20904;-78
2023/04/17 06:27:43;;;;;;;4.57;4.00;;;7.10;99.90;;;;;;5047226;28;20575;-78
2023/04/17 06:30:11;;;;;;;4.83;4.17;;;7.00;99.90;;;;;;5038211;28;20469;-78
2023/04/17 06:32:42;;;;;;;5.93;5.33;;;7.00;99.90;;;;;;5040690;28;20481;-78
2023/04/17 06:35:11;;;;;;;4.77;4.30;;;7.00;99.90;;;;;;5039661;28;20457;-78
2023/04/17 06:37:38;;;;;;;5.00;4.60;;;7.10;99.90;;;;;;5046991;28;20443;-77
2023/04/17 06:40:06;;;;;;;5.80;5.10;;;7.10;99.90;;;;;;5041428;28;20464;-77
2023/04/17 06:42:34;;;;;;;5.53;5.00;;;7.10;99.90;;;;;;5039230;28;20472;-77
2023/04/17 06:45:01;;;;;;;4.43;4.07;;;7.20;99.90;;;;;;5043522;28;20465;-77
2023/04/17 06:47:28;;;;;;;4.40;4.00;;;7.20;99.90;;;;;;5047192;28;20489;-77
2023/04/17 06:49:56;;;;;;;7.77;4.97;;;7.20;99.90;;;;;;5038872;28;20469;-77
2023/04/17 06:52:25;;;;;;;4.20;3.77;;;7.30;99.90;;;;;;5043546;28;20744;-78
2023/04/17 06:54:53;;;;;;;5.90;4.70;;;7.40;99.90;;;;;;5042368;28;20453;-78
2023/04/17 06:57:21;;;;;;;4.80;4.40;;;7.50;99.90;;;;;;5044873;28;20484;-78
2023/04/17 06:59:48;;;;;;;4.77;4.37;;;7.60;99.90;;;;;;5044616;28;20475;-78
2023/04/17 07:02:15;;;;;;;6.00;5.40;;;7.70;99.90;;;;;;5040928;28;20488;-78
2023/04/17 07:04:42;;;;;;;5.83;5.00;;;7.80;99.90;;;;;;5041500;28;20505;-78
2023/04/17 07:07:09;;;;;;;7.00;6.30;;;7.90;99.90;;;;;;5046404;28;21017;-78
2023/04/17 07:09:37;;;;;;;5.57;4.77;;;7.90;99.90;;;;;;5040084;28;20505;-78
2023/04/17 07:12:04;;;;;;;5.77;5.17;;;7.90;99.90;;;;;;5044959;28;20504;-78
2023/04/17 07:14:32;;;;;;;5.90;5.40;;;7.90;99.90;;;;;;5043282;28;20782;-78
2023/04/17 07:16:59;;;;;;;5.23;4.73;;;8.00;99.90;;;;;;5040803;28;20487;-78
2023/04/17 07:19:26;;;;;;;5.70;4.50;;;8.10;99.90;;;;;;5042444;28;20545;-78
2023/04/17 07:21:53;;;;;;;5.60;5.10;;;8.00;99.90;;;;;;5042295;28;20550;-78
2023/04/17 07:24:20;;;;;;;9.70;7.00;;;8.00;99.90;;;;;;5038610;28;20555;-78
2023/04/17 07:26:48;;;;;;;4.87;4.37;;;8.00;99.90;;;;;;5041941;28;20497;-77
2023/04/17 07:29:15;;;;;;;5.03;4.57;;;8.00;99.90;;;;;;5049443;28;20587;-78
2023/04/17 07:31:42;;;;;;;6.20;5.60;;;8.00;99.90;;;;;;5040261;28;20841;-78
2023/04/17 07:34:09;;;;;;;6.13;5.53;;;8.20;99.90;;;;;;5043365;28;20559;-78
2023/04/17 07:36:36;;;;;;;6.67;5.20;;;8.10;99.90;;;;;;5043803;28;20938;-78
2023/04/17 07:39:05;;;;;;;6.40;5.60;;;8.10;99.90;;;;;;5043169;28;20928;-78
2023/04/17 07:41:32;;;;;;;5.73;5.33;;;8.00;99.90;;;;;;5046147;28;20461;-78
2023/04/17 07:44:02;;;;;;;5.70;5.10;;;8.00;99.90;;;;;;5042197;28;20594;-78
2023/04/17 07:46:29;;;;;;;5.63;5.07;;;8.00;99.90;;;;;;5042849;28;20479;-78
2023/04/17 07:48:56;;;;;;;5.60;5.10;;;8.00;99.90;;;;;;5046040;28;20481;-78
2023/04/17 07:51:23;;;;;;;6.37;5.20;;;8.10;99.90;;;;;;5038117;28;20952;-78
2023/04/17 07:53:50;;;;;;;14.10;10.10;;;8.20;99.90;;;;;;5038709;28;20534;-78
2023/04/17 07:56:17;;;;;;;38.33;23.67;;;8.20;99.90;;;;;;5034098;28;20488;-78
2023/04/17 07:58:44;;;;;;;7.13;6.23;;;8.40;99.90;;;;;;5033479;28;20469;-78
2023/04/17 08:01:12;;;;;;;8.03;7.23;;;8.50;99.90;;;;;;5044125;28;20493;-78
2023/04/17 08:03:40;;;;;;;6.00;5.40;;;8.50;99.90;;;;;;5034062;28;20481;-78
2023/04/17 08:06:07;;;;;;;5.33;4.83;;;8.50;99.90;;;;;;5040508;28;20752;-78
2023/04/17 08:08:34;;;;;;;8.03;6.10;;;8.40;99.90;;;;;;5042346;28;20512;-78
2023/04/17 08:11:01;;;;;;;7.33;6.40;;;8.40;99.90;;;;;;5048227;28;20472;-78
2023/04/17 08:13:30;;;;;;;6.77;5.93;;;8.30;99.90;;;;;;5033033;28;20500;-78
2023/04/17 08:15:58;;;;;;;5.57;5.07;;;8.20;99.90;;;;;;5037122;28;20469;-77
2023/04/17 08:18:26;;;;;;;6.77;6.17;;;8.20;99.90;;;;;;5041324;28;20515;-78
2023/04/17 08:20:54;;;;;;;5.37;4.90;;;8.30;99.90;;;;;;5037375;28;20546;-78
2023/04/17 08:23:20;;;;;;;6.80;5.77;;;8.40;99.90;;;;;;5025427;28;20785;-79
2023/04/17 08:25:48;;;;;;;7.40;5.80;;;8.30;99.90;;;;;;5043248;28;20484;-78
2023/04/17 08:28:15;;;;;;;5.57;5.07;;;8.30;99.90;;;;;;5043749;28;20533;-79
2023/04/17 08:30:42;;;;;;;5.70;5.10;;;8.30;99.90;;;;;;5040943;28;20557;-78
2023/04/17 08:33:12;;;;;;;6.67;6.07;;;8.30;99.90;;;;;;5044694;28;20964;-79
2023/04/17 08:35:40;;;;;;;7.20;6.60;;;8.30;99.90;;;;;;5037482;28;20453;-78
2023/04/17 08:38:09;;;;;;;6.80;6.10;;;8.30;99.90;;;;;;5043733;28;20523;-79
2023/04/17 08:40:40;;;;;;;12.13;6.10;;;8.30;99.90;;;;;;5042501;28;21580;-78
2023/04/17 08:43:14;;;;;;;7.03;6.00;;;8.30;99.90;;;;;;5038116;28;20457;-79
2023/04/17 08:45:52;;;;;;;7.33;6.30;;;8.30;99.90;;;;;;5039282;28;20492;-79
2023/04/17 08:48:19;;;;;;;7.80;5.30;;;8.30;99.90;;;;;;5031018;28;20485;-79
2023/04/17 08:50:53;;;;;;;6.20;5.53;;;8.30;99.90;;;;;;5035611;28;20536;-78
2023/04/17 08:53:21;;;;;;;8.13;7.27;;;8.30;99.90;;;;;;5040482;28;20866;-79
2023/04/17 08:55:48;;;;;;;8.07;7.47;;;8.30;99.90;;;;;;5041972;28;20511;-79
2023/04/17 08:58:16;;;;;;;9.40;8.53;;;8.30;99.90;;;;;;5040914;28;20585;-79
2023/04/17 09:00:44;;;;;;;8.67;7.77;;;8.30;99.90;;;;;;5043298;28;20823;-79
2023/04/17 09:03:12;;;;;;;8.60;7.80;;;8.30;99.90;;;;;;5043978;28;20740;-79
2023/04/17 09:05:42;;;;;;;10.00;9.00;;;8.40;99.90;;;;;;5043714;28;20501;-79
2023/04/17 09:08:15;;;;;;;11.73;10.73;;;8.30;99.90;;;;;;5037063;28;20485;-78
2023/04/17 09:10:44;;;;;;;13.80;11.57;;;8.30;99.90;;;;;;5034996;28;20468;-79
2023/04/17 09:13:13;;;;;;;13.43;12.00;;;8.40;99.90;;;;;;5035573;28;20449;-79
2023/04/17 09:15:41;;;;;;;8.70;7.67;;;8.50;99.90;;;;;;5040734;28;20482;-79
2023/04/17 09:18:23;;;;;;;9.53;8.57;;;8.60;99.90;;;;;;5035086;28;20913;-79
2023/04/17 09:20:51;;;;;;;9.80;7.97;;;8.60;99.90;;;;;;5042434;28;20472;-79
2023/04/17 09:23:21;;;;;;;9.10;8.20;;;8.70;99.90;;;;;;5041868;28;20547;-79
2023/04/17 09:26:05;;;;;;;10.70;9.60;;;8.80;99.90;;;;;;5038054;28;20475;-79
2023/04/17 09:28:34;;;;;;;13.40;10.87;;;8.80;99.90;;;;;;5032451;28;20891;-79
2023/04/17 09:31:04;;;;;;;13.63;10.87;;;8.90;99.90;;;;;;5039765;28;20453;-79
2023/04/17 09:33:31;;;;;;;11.60;10.40;;;8.90;99.90;;;;;;5038971;28;20480;-79
2023/04/17 09:36:20;;;;;;;10.67;9.63;;;8.90;99.90;;;;;;5038665;28;20580;-79
2023/04/17 09:38:48;;;;;;;12.13;8.90;;;9.00;99.90;;;;;;5042116;28;20519;-79
2023/04/17 09:41:25;;;;;;;8.97;8.07;;;9.00;99.90;;;;;;5039500;28;20446;-78
2023/04/17 09:43:53;;;;;;;9.03;8.13;;;9.00;99.90;;;;;;5040422;28;20548;-79
2023/04/17 09:46:34;;;;;;;6.77;6.13;;;9.00;99.90;;;;;;5033220;28;20548;-79
2023/04/17 09:49:03;;;;;;;9.27;8.47;;;9.00;99.90;;;;;;5035014;28;20511;-79
2023/04/17 09:51:30;;;;;;;7.60;6.90;;;9.10;99.90;;;;;;5032908;28;20558;-78
2023/04/17 09:54:04;;;;;;;7.97;7.20;;;9.20;99.90;;;;;;5037434;28;20465;-79
2023/04/17 09:56:32;;;;;;;6.17;5.63;;;9.40;99.90;;;;;;5035806;28;20892;-79
2023/04/17 09:59:02;;;;;;;6.80;6.10;;;9.30;99.90;;;;;;5042659;28;20456;-78
2023/04/17 10:01:31;;;;;;;8.37;7.63;;;9.40;99.90;;;;;;5036638;28;20471;-79
2023/04/17 10:03:58;;;;;;;7.23;6.53;;;9.50;99.90;;;;;;5042444;28;20460;-79
2023/04/17 10:06:26;;;;;;;8.27;7.57;;;9.60;99.90;;;;;;5039684;28;20468;-79
2023/04/17 10:08:54;;;;;;;10.03;8.10;;;9.80;99.90;;;;;;5041971;28;20499;-79
2023/04/17 10:11:23;;;;;;;7.80;7.03;;;9.80;99.90;;;;;;5041536;28;20942;-79
2023/04/17 10:14:01;;;;;;;7.97;7.27;;;9.90;99.90;;;;;;5041478;28;20492;-79
2023/04/17 10:16:36;;;;;;;5.90;5.40;;;10.00;99.90;;;;;;5037014;28;20511;-78
2023/04/17 10:19:29;;;;;;;6.73;6.13;;;10.00;99.90;;;;;;5040413;28;20475;-79
2023/04/17 10:22:30;;;;;;;6.43;5.83;;;10.30;99.90;;;;;;5049839;28;21034;-79
2023/04/17 10:25:17;;;;;;;6.97;6.30;;;10.30;99.90;;;;;;5031392;28;21088;-79
2023/04/17 10:27:47;;;;;;;6.30;5.70;;;10.70;99.90;;;;;;5033228;28;20465;-78
2023/04/17 10:30:15;;;;;;;5.23;4.83;;;10.70;99.90;;;;;;5040849;28;20625;-79
2023/04/17 10:32:42;;;;;;;6.80;5.80;;;10.50;99.90;;;;;;5043086;28;20519;-78
2023/04/17 10:35:36;;;;;;;6.90;6.20;;;10.50;99.90;;;;;;5038221;28;20465;-78
2023/04/17 10:38:05;;;;;;;9.90;8.90;;;10.50;99.90;;;;;;5041481;28;20464;-79
2023/04/17 10:40:33;;;;;;;5.33;4.93;;;10.80;99.90;;;;;;5056169;28;20453;-78
2023/04/17 10:43:21;;;;;;;6.23;5.73;;;10.80;99.90;;;;;;5040592;28;21230;-79
2023/04/17 10:45:57;;;;;;;6.03;5.53;;;10.70;99.90;;;;;;5043977;28;20460;-79
2023/04/17 10:48:28;;;;;;;6.00;5.50;;;10.80;99.90;;;;;;5033332;28;20557;-79
2023/04/17 10:50:56;;;;;;;8.73;5.93;;;11.00;99.90;;;;;;5042577;28;20555;-78
2023/04/17 10:53:40;;;;;;;7.20;6.17;;;11.00;99.90;;;;;;5039965;28;21066;-79
2023/04/17 10:56:08;;;;;;;5.50;5.00;;;10.90;99.90;;;;;;5049265;28;20468;-79
2023/04/17 10:58:39;;;;;;;9.20;5.10;;;11.10;99.90;;;;;;5037961;28;21178;-78
2023/04/17 11:01:11;;;;;;;5.50;5.10;;;11.10;99.90;;;;;;5045788;28;20496;-78
2023/04/17 11:03:38;;;;;;;4.63;4.33;;;11.40;99.90;;;;;;5036321;28;20464;-78
2023/04/17 11:06:07;;;;;;;5.13;4.70;;;11.60;99.90;;;;;;5034948;28;20465;-78
2023/04/17 11:08:34;;;;;;;5.67;5.27;;;11.90;99.90;;;;;;5046651;28;20519;-78
2023/04/17 11:11:01;;;;;;;7.10;6.40;;;11.80;99.90;;;;;;5049760;28;20550;-79
2023/04/17 11:13:33;;;;;;;6.03;5.43;;;11.80;99.90;;;;;;5045182;28;20491;-79
2023/04/17 11:16:03;;;;;;;5.43;4.77;;;11.90;99.90;;;;;;5040680;28;20546;-79
2023/04/17 11:18:30;;;;;;;5.67;5.17;;;11.80;99.90;;;;;;5036025;28;20466;-78
2023/04/17 11:20:58;;;;;;;6.17;5.70;;;11.70;99.90;;;;;;5040599;28;20450;-79
2023/04/17 11:23:32;;;;;;;6.93;6.20;;;11.70;99.90;;;;;;5045020;28;20477;-78
2023/04/17 11:25:59;;;;;;;6.70;6.23;;;11.90;99.90;;;;;;5040970;28;20469;-79
2023/04/17 11:28:26;;;;;;;5.47;5.07;;;12.30;99.90;;;;;;5036170;28;20545;-78
2023/04/17 11:30:53;;;;;;;6.90;6.40;;;12.60;99.90;;;;;;5050451;28;20566;-79
2023/04/17 11:33:22;;;;;;;6.07;5.57;;;12.90;99.90;;;;;;5043975;28;20504;-79
2023/04/17 11:35:49;;;;;;;5.00;4.60;;;12.70;99.90;;;;;;5044397;28;20461;-79
2023/04/17 11:38:20;;;;;;;5.93;5.50;;;12.70;99.90;;;;;;5041068;28;20496;-79
2023/04/17 11:40:50;;;;;;;5.83;5.47;;;12.70;99.90;;;;;;5042125;28;20461;-79
2023/04/17 11:43:17;;;;;;;4.80;4.50;;;12.70;99.90;;;;;;5041153;28;20489;-79
2023/04/17 11:45:45;;;;;;;5.70;5.17;;;12.90;99.90;;;;;;5038629;28;20493;-79
2023/04/17 11:48:14;;;;;;;5.00;4.60;;;13.20;99.90;;;;;;5053940;28;20586;-79
2023/04/17 11:50:43;;;;;;;6.40;5.80;;;13.40;99.90;;;;;;5046899;28;20512;-79
2023/04/17 11:53:14;;;;;;;6.00;5.40;;;13.20;99.90;;;;;;5040590;28;20987;-79
2023/04/17 11:55:42;;;;;;;6.13;5.60;;;12.90;99.90;;;;;;5038175;28;20469;-79
2023/04/17 11:58:11;;;;;;;5.73;5.23;;;12.80;99.90;;;;;;5039673;28;20570;-79
2023/04/17 12:00:39;;;;;;;6.30;5.70;;;12.60;99.90;;;;;;5047800;28;20461;-79
2023/04/17 12:03:31;;;;;;;6.03;5.53;;;12.50;99.90;;;;;;5044124;28;20471;-79
2023/04/17 12:06:00;;;;;;;6.20;5.60;;;12.30;99.90;;;;;;5042326;28;20495;-79
2023/04/17 12:08:27;;;;;;;6.23;5.70;;;12.30;99.90;;;;;;5042436;28;20445;-78
2023/04/17 12:10:54;;;;;;;6.33;5.83;;;12.50;99.90;;;;;;5043136;28;20602;-79
2023/04/17 12:13:21;;;;;;;6.60;6.00;;;12.90;99.90;;;;;;5047225;28;20918;-79
2023/04/17 12:15:48;;;;;;;6.60;5.90;;;13.20;99.90;;;;;;5041136;28;20497;-79
2023/04/17 12:18:15;;;;;;;5.93;4.77;;;13.10;99.90;;;;;;5035457;28;20465;-79
2023/04/17 12:20:42;;;;;;;5.10;4.70;;;13.00;99.90;;;;;;5039368;28;20471;-79
2023/04/17 12:23:11;;;;;;;5.67;5.27;;;13.10;99.90;;;;;;5046997;28;20465;-79
2023/04/17 12:25:38;;;;;;;7.60;5.90;;;12.90;99.90;;;;;;5039500;28;20966;-79
2023/04/17 12:28:05;;;;;;;5.17;4.73;;;12.90;99.90;;;;;;5048131;28;20449;-79
2023/04/17 12:30:34;;;;;;;5.93;5.43;;;12.90;99.90;;;;;;5035418;28;20546;-79
2023/04/17 12:33:02;;;;;;;5.87;5.43;;;13.30;99.90;;;;;;5043370;28;20467;-80
2023/04/17 12:35:29;;;;;;;6.70;5.53;;;13.20;99.90;;;;;;5040174;28;20519;-79
2023/04/17 12:37:56;;;;;;;5.23;4.83;;;13.20;99.90;;;;;;5034876;28;20465;-79
2023/04/17 12:40:25;;;;;;;4.97;4.53;;;13.80;99.90;;;;;;5036794;28;20545;-79
2023/04/17 12:42:52;;;;;;;5.73;4.73;;;13.70;99.90;;;;;;5045551;28;20516;-80
2023/04/17 12:45:20;;;;;;;6.00;5.40;;;13.70;99.90;;;;;;5053498;28;21055;-79
2023/04/17 12:47:47;;;;;;;4.70;4.30;;;13.60;99.90;;;;;;5031295;28;20473;-79
2023/04/17 12:50:14;;;;;;;5.17;4.77;;;13.40;99.90;;;;;;5033327;28;20512;-79
2023/04/17 12:52:41;;;;;;;5.40;4.90;;;13.60;99.90;;;;;;5039094;28;20493;-79
2023/04/17 12:55:09;;;;;;;6.00;4.80;;;13.90;99.90;;;;;;5045497;28;20477;-79
2023/04/17 12:57:37;;;;;;;6.27;5.67;;;14.40;99.90;;;;;;5036254;28;20571;-79
2023/04/17 13:00:07;;;;;;;5.20;4.80;;;14.40;99.90;;;;;;5032389;28;20465;-79
2023/04/17 13:02:34;;;;;;;6.20;5.70;;;14.60;99.90;;;;;;5036902;28;20555;-79